sensor_id;sensor_type;location;lat;lon;timestamp;P1;durP1;ratioP1;P2;durP2;ratioP2
5702;SDS011;2876;51.738;10.050;2024-03-23T00:57:45;9.70;;;6.53;;
5702;SDS011;2876;51.738;10.050;2024-03-23T01:03:46;12.83;;;6.80;;
5702;SDS011;2876;51.738;10.050;2024-03-23T01:09:47;8.13;;;5.80;;
5702;SDS011;2876;51.738;10.050;2024-03-23T01:15:49;10.97;;;6.63;;
5702;SDS011;2876;51.738;10.050;2024-03-23T01:21:51;15.50;;;6.00;;
5702;SDS011;2876;51.738;10.050;2024-03-23T01:27:52;11.57;;;6.03;;
5702;SDS011;2876;51.738;10.050;2024-03-23T01:33:53;15.73;;;7.57;;
5702;SDS011;2876;51.738;10.050;2024-03-23T01:39:54;12.27;;;6.10;;
5702;SDS011;2876;51.738;10.050;2024-03-23T01:45:55;17.67;;;6.90;;
5702;SDS011;2876;51.738;10.050;2024-03-23T01:51:57;16.40;;;7.10;;
5702;SDS011;2876;51.738;10.050;2024-03-23T01:57:58;17.63;;;7.93;;
5702;SDS011;2876;51.738;10.050;2024-03-23T02:03:59;14.23;;;7.20;;
5702;SDS011;2876;51.738;10.050;2024-03-23T02:10:00;11.50;;;6.73;;
5702;SDS011;2876;51.738;10.050;2024-03-23T02:16:02;15.53;;;4.97;;
5702;SDS011;2876;51.738;10.050;2024-03-23T02:22:05;12.43;;;5.50;;
5702;SDS011;2876;51.738;10.050;2024-03-23T02:28:06;7.50;;;4.20;;
5702;SDS011;2876;51.738;10.050;2024-03-23T02:34:07;13.67;;;5.53;;
5702;SDS011;2876;51.738;10.050;2024-03-23T02:40:08;5.60;;;4.00;;
5702;SDS011;2876;51.738;10.050;2024-03-23T02:46:09;16.60;;;5.60;;
5702;SDS011;2876;51.738;10.050;2024-03-23T02:52:10;9.80;;;4.47;;
5702;SDS011;2876;51.738;10.050;2024-03-23T02:58:11;6.83;;;4.17;;
5702;SDS011;2876;51.738;10.050;2024-03-23T03:04:12;14.73;;;6.00;;
5702;SDS011;2876;51.738;10.050;2024-03-23T03:10:13;16.67;;;6.70;;
5702;SDS011;2876;51.738;10.050;2024-03-23T03:16:14;14.30;;;5.87;;
5702;SDS011;2876;51.738;10.050;2024-03-23T03:22:15;9.13;;;5.13;;
5702;SDS011;2876;51.738;10.050;2024-03-23T03:28:16;10.43;;;6.20;;
5702;SDS011;2876;51.738;10.050;2024-03-23T03:34:17;11.83;;;6.30;;
5702;SDS011;2876;51.738;10.050;2024-03-23T03:40:18;9.60;;;5.50;;
5702;SDS011;2876;51.738;10.050;2024-03-23T03:46:19;15.77;;;5.60;;
5702;SDS011;2876;51.738;10.050;2024-03-23T03:52:21;10.27;;;3.93;;
5702;SDS011;2876;51.738;10.050;2024-03-23T03:58:22;10.47;;;3.80;;
5702;SDS011;2876;51.738;10.050;2024-03-23T04:04:23;6.13;;;3.13;;
5702;SDS011;2876;51.738;10.050;2024-03-23T04:10:24;6.30;;;2.97;;
5702;SDS011;2876;51.738;10.050;2024-03-23T04:16:27;16.67;;;7.80;;
5702;SDS011;2876;51.738;10.050;2024-03-23T04:22:29;4.00;;;3.13;;
5702;SDS011;2876;51.738;10.050;2024-03-23T04:28:30;4.90;;;2.77;;
5702;SDS011;2876;51.738;10.050;2024-03-23T04:34:31;3.67;;;1.70;;
5702;SDS011;2876;51.738;10.050;2024-03-23T04:40:33;3.60;;;2.40;;
5702;SDS011;2876;51.738;10.050;2024-03-23T04:46:34;4.40;;;1.70;;
5702;SDS011;2876;51.738;10.050;2024-03-23T04:52:35;2.37;;;1.43;;
5702;SDS011;2876;51.738;10.050;2024-03-23T04:58:36;3.10;;;1.80;;
5702;SDS011;2876;51.738;10.050;2024-03-23T05:04:37;1.57;;;1.20;;
5702;SDS011;2876;51.738;10.050;2024-03-23T05:10:38;4.13;;;1.83;;
5702;SDS011;2876;51.738;10.050;2024-03-23T05:16:39;2.60;;;1.50;;
5702;SDS011;2876;51.738;10.050;2024-03-23T05:22:40;3.00;;;1.50;;
5702;SDS011;2876;51.738;10.050;2024-03-23T05:28:41;2.33;;;1.37;;
5702;SDS011;2876;51.738;10.050;2024-03-23T05:34:43;7.70;;;2.10;;
5702;SDS011;2876;51.738;10.050;2024-03-23T05:40:52;4.70;;;1.80;;
5702;SDS011;2876;51.738;10.050;2024-03-23T05:47:00;2.63;;;1.80;;
5702;SDS011;2876;51.738;10.050;2024-03-23T05:53:01;4.80;;;1.90;;
5702;SDS011;2876;51.738;10.050;2024-03-23T05:59:04;1.83;;;1.60;;
5702;SDS011;2876;51.738;10.050;2024-03-23T06:05:07;5.10;;;1.97;;
5702;SDS011;2876;51.738;10.050;2024-03-23T06:11:08;4.50;;;1.90;;
5702;SDS011;2876;51.738;10.050;2024-03-23T06:17:09;2.13;;;1.53;;
5702;SDS011;2876;51.738;10.050;2024-03-23T06:23:10;2.00;;;1.33;;
5702;SDS011;2876;51.738;10.050;2024-03-23T06:29:12;3.83;;;1.80;;
5702;SDS011;2876;51.738;10.050;2024-03-23T06:35:13;8.40;;;2.10;;
5702;SDS011;2876;51.738;10.050;2024-03-23T06:41:14;7.17;;;1.97;;
5702;SDS011;2876;51.738;10.050;2024-03-23T06:47:15;5.00;;;1.77;;
5702;SDS011;2876;51.738;10.050;2024-03-23T06:53:16;2.40;;;1.47;;
5702;SDS011;2876;51.738;10.050;2024-03-23T06:59:17;4.93;;;1.80;;
5702;SDS011;2876;51.738;10.050;2024-03-23T07:05:18;2.07;;;1.80;;
5702;SDS011;2876;51.738;10.050;2024-03-23T07:11:20;2.83;;;1.57;;
5702;SDS011;2876;51.738;10.050;2024-03-23T07:17:22;5.27;;;1.30;;
5702;SDS011;2876;51.738;10.050;2024-03-23T07:23:23;1.50;;;1.40;;
5702;SDS011;2876;51.738;10.050;2024-03-23T07:29:25;1.70;;;1.23;;
5702;SDS011;2876;51.738;10.050;2024-03-23T07:35:26;2.10;;;1.90;;
5702;SDS011;2876;51.738;10.050;2024-03-23T07:41:27;2.13;;;1.30;;
5702;SDS011;2876;51.738;10.050;2024-03-23T07:47:28;4.50;;;1.40;;
5702;SDS011;2876;51.738;10.050;2024-03-23T07:53:29;1.50;;;1.40;;
5702;SDS011;2876;51.738;10.050;2024-03-23T07:59:32;2.27;;;1.50;;
5702;SDS011;2876;51.738;10.050;2024-03-23T08:05:34;4.73;;;2.10;;
5702;SDS011;2876;51.738;10.050;2024-03-23T08:11:35;2.30;;;1.60;;
5702;SDS011;2876;51.738;10.050;2024-03-23T08:17:36;8.37;;;2.40;;
5702;SDS011;2876;51.738;10.050;2024-03-23T08:23:37;7.80;;;2.53;;
5702;SDS011;2876;51.738;10.050;2024-03-23T08:29:38;7.70;;;2.30;;
5702;SDS011;2876;51.738;10.050;2024-03-23T08:35:40;3.00;;;1.70;;
5702;SDS011;2876;51.738;10.050;2024-03-23T08:41:42;8.90;;;2.30;;
5702;SDS011;2876;51.738;10.050;2024-03-23T08:47:46;8.40;;;2.73;;
5702;SDS011;2876;51.738;10.050;2024-03-23T08:53:47;8.50;;;1.73;;
5702;SDS011;2876;51.738;10.050;2024-03-23T08:59:48;6.73;;;1.90;;
5702;SDS011;2876;51.738;10.050;2024-03-23T09:05:50;6.87;;;2.10;;
5702;SDS011;2876;51.738;10.050;2024-03-23T09:11:52;5.47;;;2.17;;
5702;SDS011;2876;51.738;10.050;2024-03-23T09:17:53;5.57;;;2.40;;
5702;SDS011;2876;51.738;10.050;2024-03-23T09:23:54;12.33;;;2.80;;
5702;SDS011;2876;51.738;10.050;2024-03-23T09:29:55;7.37;;;2.50;;
5702;SDS011;2876;51.738;10.050;2024-03-23T09:35:56;10.00;;;3.20;;
5702;SDS011;2876;51.738;10.050;2024-03-23T09:41:57;7.73;;;3.00;;
5702;SDS011;2876;51.738;10.050;2024-03-23T09:47:58;13.13;;;2.90;;
5702;SDS011;2876;51.738;10.050;2024-03-23T09:53:59;16.70;;;3.90;;
5702;SDS011;2876;51.738;10.050;2024-03-23T10:00:01;7.80;;;3.77;;
5702;SDS011;2876;51.738;10.050;2024-03-23T10:06:03;11.23;;;3.60;;
5702;SDS011;2876;51.738;10.050;2024-03-23T10:12:11;13.67;;;4.27;;
5702;SDS011;2876;51.738;10.050;2024-03-23T10:18:18;12.37;;;4.07;;
5702;SDS011;2876;51.738;10.050;2024-03-23T10:24:20;9.23;;;4.20;;
5702;SDS011;2876;51.738;10.050;2024-03-23T10:30:21;10.57;;;4.17;;
5702;SDS011;2876;51.738;10.050;2024-03-23T10:36:27;10.37;;;3.80;;
5702;SDS011;2876;51.738;10.050;2024-03-23T10:42:30;11.27;;;3.40;;
5702;SDS011;2876;51.738;10.050;2024-03-23T10:48:33;9.27;;;3.63;;
5702;SDS011;2876;51.738;10.050;2024-03-23T10:54:34;10.90;;;3.57;;
5702;SDS011;2876;51.738;10.050;2024-03-23T11:00:36;7.40;;;4.17;;
5702;SDS011;2876;51.738;10.050;2024-03-23T11:06:38;12.60;;;3.30;;
5702;SDS011;2876;51.738;10.050;2024-03-23T11:12:42;7.83;;;3.37;;
5702;SDS011;2876;51.738;10.050;2024-03-23T11:18:44;6.60;;;3.27;;
5702;SDS011;2876;51.738;10.050;2024-03-23T11:24:49;6.50;;;2.80;;
5702;SDS011;2876;51.738;10.050;2024-03-23T11:30:51;2.37;;;1.97;;
5702;SDS011;2876;51.738;10.050;2024-03-23T11:37:03;7.17;;;1.80;;
5702;SDS011;2876;51.738;10.050;2024-03-23T11:43:05;2.77;;;1.60;;
5702;SDS011;2876;51.738;10.050;2024-03-23T11:49:24;5.03;;;1.50;;
5702;SDS011;2876;51.738;10.050;2024-03-23T11:55:27;4.80;;;1.60;;
5702;SDS011;2876;51.738;10.050;2024-03-23T12:01:28;3.50;;;1.83;;
5702;SDS011;2876;51.738;10.050;2024-03-23T12:07:29;2.67;;;1.57;;
5702;SDS011;2876;51.738;10.050;2024-03-23T12:13:30;7.80;;;2.80;;
5702;SDS011;2876;51.738;10.050;2024-03-23T12:19:31;4.87;;;1.97;;
5702;SDS011;2876;51.738;10.050;2024-03-23T12:25:32;6.50;;;3.50;;
5702;SDS011;2876;51.738;10.050;2024-03-23T12:31:34;2.97;;;2.70;;
5702;SDS011;2876;51.738;10.050;2024-03-23T12:37:35;4.13;;;1.67;;
5702;SDS011;2876;51.738;10.050;2024-03-23T12:43:36;2.47;;;1.40;;
5702;SDS011;2876;51.738;10.050;2024-03-23T12:49:38;3.60;;;1.43;;
5702;SDS011;2876;51.738;10.050;2024-03-23T12:55:39;1.83;;;1.63;;
5702;SDS011;2876;51.738;10.050;2024-03-23T13:01:40;1.60;;;1.30;;
5702;SDS011;2876;51.738;10.050;2024-03-23T13:07:41;1.67;;;1.40;;
5702;SDS011;2876;51.738;10.050;2024-03-23T13:13:42;4.33;;;2.17;;
5702;SDS011;2876;51.738;10.050;2024-03-23T13:19:43;2.73;;;1.00;;
5702;SDS011;2876;51.738;10.050;2024-03-23T13:25:50;2.73;;;1.97;;
5702;SDS011;2876;51.738;10.050;2024-03-23T13:31:53;1.13;;;1.07;;
5702;SDS011;2876;51.738;10.050;2024-03-23T13:37:54;3.37;;;1.40;;
5702;SDS011;2876;51.738;10.050;2024-03-23T13:43:55;3.87;;;1.70;;
5702;SDS011;2876;51.738;10.050;2024-03-23T13:49:56;3.00;;;2.13;;
5702;SDS011;2876;51.738;10.050;2024-03-23T13:55:57;2.50;;;2.30;;
5702;SDS011;2876;51.738;10.050;2024-03-23T14:01:58;6.77;;;2.20;;
5702;SDS011;2876;51.738;10.050;2024-03-23T14:07:59;6.70;;;2.00;;
5702;SDS011;2876;51.738;10.050;2024-03-23T14:14:00;3.83;;;2.20;;
5702;SDS011;2876;51.738;10.050;2024-03-23T14:20:01;7.60;;;3.40;;
5702;SDS011;2876;51.738;10.050;2024-03-23T14:26:05;6.20;;;3.70;;
5702;SDS011;2876;51.738;10.050;2024-03-23T14:32:07;4.10;;;3.70;;
5702;SDS011;2876;51.738;10.050;2024-03-23T14:38:08;9.53;;;4.30;;
5702;SDS011;2876;51.738;10.050;2024-03-23T14:44:09;8.17;;;3.90;;
5702;SDS011;2876;51.738;10.050;2024-03-23T14:50:10;3.90;;;3.23;;
5702;SDS011;2876;51.738;10.050;2024-03-23T14:56:15;3.40;;;2.93;;
5702;SDS011;2876;51.738;10.050;2024-03-23T15:02:17;2.90;;;2.40;;
5702;SDS011;2876;51.738;10.050;2024-03-23T15:08:18;2.43;;;1.70;;
5702;SDS011;2876;51.738;10.050;2024-03-23T15:14:19;4.67;;;1.90;;
5702;SDS011;2876;51.738;10.050;2024-03-23T15:20:20;4.47;;;1.70;;
5702;SDS011;2876;51.738;10.050;2024-03-23T15:26:21;4.50;;;1.70;;
5702;SDS011;2876;51.738;10.050;2024-03-23T15:32:22;4.20;;;1.93;;
5702;SDS011;2876;51.738;10.050;2024-03-23T15:38:23;2.70;;;1.50;;
5702;SDS011;2876;51.738;10.050;2024-03-23T15:44:24;2.30;;;2.07;;
5702;SDS011;2876;51.738;10.050;2024-03-23T15:50:25;2.90;;;2.60;;
5702;SDS011;2876;51.738;10.050;2024-03-23T15:56:26;3.83;;;1.77;;
5702;SDS011;2876;51.738;10.050;2024-03-23T16:02:29;2.13;;;1.93;;
5702;SDS011;2876;51.738;10.050;2024-03-23T16:08:31;4.30;;;2.33;;
5702;SDS011;2876;51.738;10.050;2024-03-23T16:14:32;6.50;;;2.97;;
5702;SDS011;2876;51.738;10.050;2024-03-23T16:20:33;6.97;;;3.10;;
5702;SDS011;2876;51.738;10.050;2024-03-23T16:26:34;2.07;;;1.87;;
5702;SDS011;2876;51.738;10.050;2024-03-23T16:32:35;3.43;;;2.03;;
5702;SDS011;2876;51.738;10.050;2024-03-23T16:38:37;3.30;;;2.50;;
5702;SDS011;2876;51.738;10.050;2024-03-23T16:44:40;8.73;;;5.27;;
5702;SDS011;2876;51.738;10.050;2024-03-23T16:50:42;7.27;;;3.87;;
5702;SDS011;2876;51.738;10.050;2024-03-23T16:56:43;5.10;;;2.30;;
5702;SDS011;2876;51.738;10.050;2024-03-23T17:02:44;4.97;;;2.50;;
5702;SDS011;2876;51.738;10.050;2024-03-23T17:08:46;1.77;;;1.63;;
5702;SDS011;2876;51.738;10.050;2024-03-23T17:14:47;4.07;;;2.47;;
5702;SDS011;2876;51.738;10.050;2024-03-23T17:20:48;8.03;;;4.13;;
5702;SDS011;2876;51.738;10.050;2024-03-23T17:26:49;12.73;;;4.60;;
5702;SDS011;2876;51.738;10.050;2024-03-23T17:32:50;4.03;;;2.03;;
5702;SDS011;2876;51.738;10.050;2024-03-23T17:38:55;2.53;;;1.90;;
5702;SDS011;2876;51.738;10.050;2024-03-23T17:44:57;4.33;;;2.30;;
5702;SDS011;2876;51.738;10.050;2024-03-23T17:51:04;2.17;;;1.90;;
5702;SDS011;2876;51.738;10.050;2024-03-23T17:57:05;3.43;;;2.20;;
5702;SDS011;2876;51.738;10.050;2024-03-23T18:03:06;3.90;;;2.17;;
5702;SDS011;2876;51.738;10.050;2024-03-23T18:09:08;2.87;;;2.67;;
5702;SDS011;2876;51.738;10.050;2024-03-23T18:15:10;3.30;;;2.60;;
5702;SDS011;2876;51.738;10.050;2024-03-23T18:21:11;4.90;;;2.80;;
5702;SDS011;2876;51.738;10.050;2024-03-23T18:27:12;3.80;;;2.40;;
5702;SDS011;2876;51.738;10.050;2024-03-23T18:33:13;4.33;;;2.70;;
5702;SDS011;2876;51.738;10.050;2024-03-23T18:39:14;4.50;;;2.70;;
5702;SDS011;2876;51.738;10.050;2024-03-23T18:45:15;4.77;;;2.57;;
5702;SDS011;2876;51.738;10.050;2024-03-23T18:51:16;6.00;;;2.60;;
5702;SDS011;2876;51.738;10.050;2024-03-23T18:57:17;5.07;;;3.40;;
5702;SDS011;2876;51.738;10.050;2024-03-23T19:03:18;3.90;;;3.17;;
5702;SDS011;2876;51.738;10.050;2024-03-23T19:09:19;6.40;;;3.63;;
5702;SDS011;2876;51.738;10.050;2024-03-23T19:15:20;4.37;;;2.80;;
5702;SDS011;2876;51.738;10.050;2024-03-23T19:21:22;4.43;;;3.77;;
5702;SDS011;2876;51.738;10.050;2024-03-23T19:27:25;7.27;;;4.10;;
5702;SDS011;2876;51.738;10.050;2024-03-23T19:33:26;8.07;;;3.97;;
5702;SDS011;2876;51.738;10.050;2024-03-23T19:39:28;7.00;;;4.43;;
5702;SDS011;2876;51.738;10.050;2024-03-23T19:45:29;5.00;;;4.50;;
5702;SDS011;2876;51.738;10.050;2024-03-23T19:51:31;4.37;;;3.73;;
5702;SDS011;2876;51.738;10.050;2024-03-23T19:57:32;5.83;;;3.20;;
5702;SDS011;2876;51.738;10.050;2024-03-23T20:03:33;15.20;;;4.03;;
5702;SDS011;2876;51.738;10.050;2024-03-23T20:09:34;4.80;;;2.93;;
5702;SDS011;2876;51.738;10.050;2024-03-23T20:15:35;3.27;;;2.83;;
5702;SDS011;2876;51.738;10.050;2024-03-23T20:21:36;7.03;;;2.73;;
5702;SDS011;2876;51.738;10.050;2024-03-23T20:27:37;2.73;;;2.23;;
5702;SDS011;2876;51.738;10.050;2024-03-23T20:33:38;5.30;;;2.40;;
5702;SDS011;2876;51.738;10.050;2024-03-23T20:39:39;4.17;;;1.50;;
5702;SDS011;2876;51.738;10.050;2024-03-23T20:45:40;2.27;;;1.80;;
5702;SDS011;2876;51.738;10.050;2024-03-23T20:51:41;4.40;;;1.70;;
5702;SDS011;2876;51.738;10.050;2024-03-23T20:57:42;3.20;;;1.90;;
5702;SDS011;2876;51.738;10.050;2024-03-23T21:03:43;5.03;;;2.80;;
5702;SDS011;2876;51.738;10.050;2024-03-23T21:09:44;3.63;;;2.00;;
5702;SDS011;2876;51.738;10.050;2024-03-23T21:15:52;4.60;;;1.77;;
5702;SDS011;2876;51.738;10.050;2024-03-23T21:22:01;6.43;;;2.27;;
5702;SDS011;2876;51.738;10.050;2024-03-23T21:28:03;3.03;;;1.63;;
5702;SDS011;2876;51.738;10.050;2024-03-23T21:34:04;5.00;;;2.13;;
5702;SDS011;2876;51.738;10.050;2024-03-23T21:40:06;19.40;;;7.60;;
5702;SDS011;2876;51.738;10.050;2024-03-23T21:46:09;4.93;;;2.07;;
5702;SDS011;2876;51.738;10.050;2024-03-23T21:52:10;2.57;;;1.73;;
5702;SDS011;2876;51.738;10.050;2024-03-23T21:58:11;3.40;;;1.80;;
5702;SDS011;2876;51.738;10.050;2024-03-23T22:04:12;3.97;;;2.63;;
5702;SDS011;2876;51.738;10.050;2024-03-23T22:10:13;4.60;;;2.40;;
5702;SDS011;2876;51.738;10.050;2024-03-23T22:16:14;6.93;;;3.27;;
5702;SDS011;2876;51.738;10.050;2024-03-23T22:22:15;3.30;;;2.70;;
5702;SDS011;2876;51.738;10.050;2024-03-23T22:28:17;16.37;;;3.13;;
5702;SDS011;2876;51.738;10.050;2024-03-23T22:34:18;7.83;;;2.70;;
5702;SDS011;2876;51.738;10.050;2024-03-23T22:40:19;6.03;;;2.93;;
5702;SDS011;2876;51.738;10.050;2024-03-23T22:46:20;4.17;;;2.60;;
5702;SDS011;2876;51.738;10.050;2024-03-23T22:52:21;3.90;;;2.93;;
5702;SDS011;2876;51.738;10.050;2024-03-23T22:58:24;5.47;;;4.00;;
5702;SDS011;2876;51.738;10.050;2024-03-23T23:04:26;3.73;;;3.27;;
5702;SDS011;2876;51.738;10.050;2024-03-23T23:10:27;4.13;;;3.47;;
5702;SDS011;2876;51.738;10.050;2024-03-23T23:16:28;4.30;;;3.57;;
5702;SDS011;2876;51.738;10.050;2024-03-23T23:22:29;4.20;;;3.80;;
5702;SDS011;2876;51.738;10.050;2024-03-23T23:28:30;4.70;;;3.40;;
5702;SDS011;2876;51.738;10.050;2024-03-23T23:34:32;8.37;;;3.83;;
5702;SDS011;2876;51.738;10.050;2024-03-23T23:40:33;3.47;;;3.03;;
5702;SDS011;2876;51.738;10.050;2024-03-23T23:46:34;3.83;;;3.30;;
5702;SDS011;2876;51.738;10.050;2024-03-23T23:52:35;4.07;;;2.80;;
5702;SDS011;2876;51.738;10.050;2024-03-23T23:58:36;7.37;;;4.47;;
